Current Weather

Ouagadougou

Ouagadougou, Burkina Faso (DFFD)

Report from: Wednesday, April 24, 2024 6:00 PM GMT
Current time: Wednesday, April 24, 2024 6:32 PM GMT

Nearby weather – Weather history – Daily summaries
Weather forecast

Temperature41.0°C (105.8°F)
Heat index41.6°C (106.8°F)
Dew point15.0°C (59.0°F)
Winds 3 kts (1.5 m/s, 3.5 mph) South (170°)
Visibility6.2 mi. (10 km)
Clouds Few clouds 2,600 ft. (792 m)
Few clouds with cumulonimbus 4,000 ft. (1,219 m)
Altimeter29.71 in.Hg (1006 mB)
Relative humidity22 %
Density altitude3,393 ft. (1,034 m)
Flight conditions Visual Meteorological Conditions
Raw dataDFFD 241800Z 17003KT 9999 FEW026 FEW040CB 41/15 Q1006 TEMPO TS
An error has occurred. This application may no longer respond until reloaded. Reload 🗙